sensor_id;sensor_type;location;lat;lon;timestamp;temperature;humidity
10911;DHT22;5508;49.150;11.030;2023-06-14T00:02:39;10.40;79.00
10911;DHT22;5508;49.150;11.030;2023-06-14T00:05:39;10.30;79.70
10911;DHT22;5508;49.150;11.030;2023-06-14T00:08:43;10.30;79.70
10911;DHT22;5508;49.150;11.030;2023-06-14T00:11:44;10.20;79.10
10911;DHT22;5508;49.150;11.030;2023-06-14T00:14:44;10.20;79.00
10911;DHT22;5508;49.150;11.030;2023-06-14T00:17:45;10.30;77.80
10911;DHT22;5508;49.150;11.030;2023-06-14T00:20:47;10.20;76.30
10911;DHT22;5508;49.150;11.030;2023-06-14T00:23:48;10.20;76.90
10911;DHT22;5508;49.150;11.030;2023-06-14T00:26:49;10.00;77.40
10911;DHT22;5508;49.150;11.030;2023-06-14T00:29:49;9.90;77.80
10911;DHT22;5508;49.150;11.030;2023-06-14T00:32:50;9.90;78.70
10911;DHT22;5508;49.150;11.030;2023-06-14T00:35:51;9.90;79.80
10911;DHT22;5508;49.150;11.030;2023-06-14T00:38:54;9.90;79.00
10911;DHT22;5508;49.150;11.030;2023-06-14T00:41:54;9.90;79.60
10911;DHT22;5508;49.150;11.030;2023-06-14T00:44:55;9.90;78.50
10911;DHT22;5508;49.150;11.030;2023-06-14T00:47:56;9.90;78.80
10911;DHT22;5508;49.150;11.030;2023-06-14T00:50:57;9.90;79.60
10911;DHT22;5508;49.150;11.030;2023-06-14T00:53:58;9.80;80.00
10911;DHT22;5508;49.150;11.030;2023-06-14T00:56:59;9.70;81.80
10911;DHT22;5508;49.150;11.030;2023-06-14T00:59:59;9.60;82.10
10911;DHT22;5508;49.150;11.030;2023-06-14T01:03:01;9.50;81.00
10911;DHT22;5508;49.150;11.030;2023-06-14T01:09:35;9.40;81.10
10911;DHT22;5508;49.150;11.030;2023-06-14T01:16:05;9.50;81.40
10911;DHT22;5508;49.150;11.030;2023-06-14T01:19:10;9.50;82.00
10911;DHT22;5508;49.150;11.030;2023-06-14T01:22:14;9.50;82.20
10911;DHT22;5508;49.150;11.030;2023-06-14T01:25:15;9.50;82.60
10911;DHT22;5508;49.150;11.030;2023-06-14T01:28:17;9.40;82.00
10911;DHT22;5508;49.150;11.030;2023-06-14T01:31:22;9.20;83.10
10911;DHT22;5508;49.150;11.030;2023-06-14T01:34:23;9.20;83.50
10911;DHT22;5508;49.150;11.030;2023-06-14T01:37:23;9.20;82.80
10911;DHT22;5508;49.150;11.030;2023-06-14T01:40:25;9.20;82.30
10911;DHT22;5508;49.150;11.030;2023-06-14T01:43:26;9.10;82.80
10911;DHT22;5508;49.150;11.030;2023-06-14T01:46:28;9.00;82.40
10911;DHT22;5508;49.150;11.030;2023-06-14T01:49:29;8.90;83.20
10911;DHT22;5508;49.150;11.030;2023-06-14T01:52:30;8.80;84.20
10911;DHT22;5508;49.150;11.030;2023-06-14T01:55:30;8.70;84.60
10911;DHT22;5508;49.150;11.030;2023-06-14T01:58:37;8.70;85.30
10911;DHT22;5508;49.150;11.030;2023-06-14T02:01:38;8.70;84.00
10911;DHT22;5508;49.150;11.030;2023-06-14T02:07:39;8.70;83.70
10911;DHT22;5508;49.150;11.030;2023-06-14T02:10:40;8.60;84.20
10911;DHT22;5508;49.150;11.030;2023-06-14T02:13:40;8.70;83.90
10911;DHT22;5508;49.150;11.030;2023-06-14T02:16:41;8.60;85.00
10911;DHT22;5508;49.150;11.030;2023-06-14T02:19:49;8.60;86.10
10911;DHT22;5508;49.150;11.030;2023-06-14T02:25:51;8.30;87.30
10911;DHT22;5508;49.150;11.030;2023-06-14T02:28:52;8.30;88.40
10911;DHT22;5508;49.150;11.030;2023-06-14T02:31:53;8.30;88.90
10911;DHT22;5508;49.150;11.030;2023-06-14T02:34:53;8.20;87.90
10911;DHT22;5508;49.150;11.030;2023-06-14T02:37:55;8.20;88.20
10911;DHT22;5508;49.150;11.030;2023-06-14T02:40:55;7.90;88.60
10911;DHT22;5508;49.150;11.030;2023-06-14T02:43:56;7.90;90.10
10911;DHT22;5508;49.150;11.030;2023-06-14T02:46:59;8.00;91.20
10911;DHT22;5508;49.150;11.030;2023-06-14T02:50:01;8.00;89.40
10911;DHT22;5508;49.150;11.030;2023-06-14T02:53:02;8.00;87.20
10911;DHT22;5508;49.150;11.030;2023-06-14T02:56:04;7.90;88.20
10911;DHT22;5508;49.150;11.030;2023-06-14T02:59:04;7.80;89.00
10911;DHT22;5508;49.150;11.030;2023-06-14T03:02:05;7.70;89.50
10911;DHT22;5508;49.150;11.030;2023-06-14T03:05:06;7.70;90.20
10911;DHT22;5508;49.150;11.030;2023-06-14T03:08:07;7.80;89.40
10911;DHT22;5508;49.150;11.030;2023-06-14T03:11:08;7.80;90.60
10911;DHT22;5508;49.150;11.030;2023-06-14T03:14:09;7.70;90.00
10911;DHT22;5508;49.150;11.030;2023-06-14T03:17:11;7.70;90.90
10911;DHT22;5508;49.150;11.030;2023-06-14T03:20:12;7.70;90.70
10911;DHT22;5508;49.150;11.030;2023-06-14T03:23:12;7.60;90.90
10911;DHT22;5508;49.150;11.030;2023-06-14T03:26:13;7.60;90.90
10911;DHT22;5508;49.150;11.030;2023-06-14T03:29:15;7.70;90.20
10911;DHT22;5508;49.150;11.030;2023-06-14T03:32:16;7.70;89.40
10911;DHT22;5508;49.150;11.030;2023-06-14T03:35:17;7.70;89.60
10911;DHT22;5508;49.150;11.030;2023-06-14T03:38:18;7.50;89.60
10911;DHT22;5508;49.150;11.030;2023-06-14T03:41:18;7.50;90.20
10911;DHT22;5508;49.150;11.030;2023-06-14T03:44:19;7.50;91.20
10911;DHT22;5508;49.150;11.030;2023-06-14T03:47:19;7.50;91.30
10911;DHT22;5508;49.150;11.030;2023-06-14T03:50:20;7.40;91.30
10911;DHT22;5508;49.150;11.030;2023-06-14T03:53:21;7.50;91.40
10911;DHT22;5508;49.150;11.030;2023-06-14T03:56:23;7.50;91.10
10911;DHT22;5508;49.150;11.030;2023-06-14T03:59:24;7.60;92.00
10911;DHT22;5508;49.150;11.030;2023-06-14T04:02:26;7.70;91.90
10911;DHT22;5508;49.150;11.030;2023-06-14T04:05:29;7.80;92.10
10911;DHT22;5508;49.150;11.030;2023-06-14T04:08:29;7.90;89.50
10911;DHT22;5508;49.150;11.030;2023-06-14T04:11:30;8.10;88.90
10911;DHT22;5508;49.150;11.030;2023-06-14T04:14:31;8.20;88.60
10911;DHT22;5508;49.150;11.030;2023-06-14T04:17:37;8.20;88.30
10911;DHT22;5508;49.150;11.030;2023-06-14T04:20:38;8.40;88.80
10911;DHT22;5508;49.150;11.030;2023-06-14T04:23:40;8.50;88.70
10911;DHT22;5508;49.150;11.030;2023-06-14T04:26:45;8.60;89.10
10911;DHT22;5508;49.150;11.030;2023-06-14T04:29:45;8.80;87.00
10911;DHT22;5508;49.150;11.030;2023-06-14T04:32:49;8.90;87.30
10911;DHT22;5508;49.150;11.030;2023-06-14T04:35:54;9.00;84.20
10911;DHT22;5508;49.150;11.030;2023-06-14T04:38:55;9.10;86.50
10911;DHT22;5508;49.150;11.030;2023-06-14T04:41:55;9.00;86.70
10911;DHT22;5508;49.150;11.030;2023-06-14T04:44:57;9.10;86.40
10911;DHT22;5508;49.150;11.030;2023-06-14T04:48:00;9.30;84.30
10911;DHT22;5508;49.150;11.030;2023-06-14T04:51:01;9.50;85.60
10911;DHT22;5508;49.150;11.030;2023-06-14T04:54:04;9.70;85.00
10911;DHT22;5508;49.150;11.030;2023-06-14T04:57:05;9.80;85.00
10911;DHT22;5508;49.150;11.030;2023-06-14T05:00:06;9.90;85.60
10911;DHT22;5508;49.150;11.030;2023-06-14T05:03:07;10.00;85.40
10911;DHT22;5508;49.150;11.030;2023-06-14T05:06:07;10.40;83.40
10911;DHT22;5508;49.150;11.030;2023-06-14T05:09:08;10.60;82.40
10911;DHT22;5508;49.150;11.030;2023-06-14T05:12:08;10.80;80.70
10911;DHT22;5508;49.150;11.030;2023-06-14T05:15:10;10.80;80.20
10911;DHT22;5508;49.150;11.030;2023-06-14T05:18:10;10.90;81.60
10911;DHT22;5508;49.150;11.030;2023-06-14T05:21:11;10.90;82.10
10911;DHT22;5508;49.150;11.030;2023-06-14T05:24:12;10.90;81.80
10911;DHT22;5508;49.150;11.030;2023-06-14T05:27:12;11.20;81.00
10911;DHT22;5508;49.150;11.030;2023-06-14T05:30:14;11.50;80.40
10911;DHT22;5508;49.150;11.030;2023-06-14T05:33:15;11.70;80.60
10911;DHT22;5508;49.150;11.030;2023-06-14T05:36:16;11.80;79.30
10911;DHT22;5508;49.150;11.030;2023-06-14T05:39:16;11.90;78.10
10911;DHT22;5508;49.150;11.030;2023-06-14T05:42:17;12.20;78.00
10911;DHT22;5508;49.150;11.030;2023-06-14T05:45:18;12.30;78.70
10911;DHT22;5508;49.150;11.030;2023-06-14T05:48:18;12.20;81.20
10911;DHT22;5508;49.150;11.030;2023-06-14T05:51:19;12.30;76.60
10911;DHT22;5508;49.150;11.030;2023-06-14T05:54:19;12.40;74.80
10911;DHT22;5508;49.150;11.030;2023-06-14T05:57:20;12.40;82.00
10911;DHT22;5508;49.150;11.030;2023-06-14T06:00:21;12.40;80.70
10911;DHT22;5508;49.150;11.030;2023-06-14T06:03:22;12.70;77.10
10911;DHT22;5508;49.150;11.030;2023-06-14T06:06:23;12.90;75.60
10911;DHT22;5508;49.150;11.030;2023-06-14T06:09:23;13.10;74.80
10911;DHT22;5508;49.150;11.030;2023-06-14T06:12:24;13.40;73.50
10911;DHT22;5508;49.150;11.030;2023-06-14T06:15:25;13.90;71.60
10911;DHT22;5508;49.150;11.030;2023-06-14T06:18:25;14.30;68.00
10911;DHT22;5508;49.150;11.030;2023-06-14T06:21:26;14.50;68.40
10911;DHT22;5508;49.150;11.030;2023-06-14T06:24:26;14.60;65.80
10911;DHT22;5508;49.150;11.030;2023-06-14T06:27:27;14.70;66.20
10911;DHT22;5508;49.150;11.030;2023-06-14T06:30:27;15.00;64.90
10911;DHT22;5508;49.150;11.030;2023-06-14T06:33:28;15.30;66.90
10911;DHT22;5508;49.150;11.030;2023-06-14T06:36:28;15.80;63.30
10911;DHT22;5508;49.150;11.030;2023-06-14T06:39:29;16.20;61.70
10911;DHT22;5508;49.150;11.030;2023-06-14T06:42:30;16.10;59.50
10911;DHT22;5508;49.150;11.030;2023-06-14T06:45:31;16.00;58.90
10911;DHT22;5508;49.150;11.030;2023-06-14T06:48:31;15.90;58.80
10911;DHT22;5508;49.150;11.030;2023-06-14T06:51:32;15.80;59.40
10911;DHT22;5508;49.150;11.030;2023-06-14T06:54:33;15.90;59.30
10911;DHT22;5508;49.150;11.030;2023-06-14T06:57:34;16.20;59.50
10911;DHT22;5508;49.150;11.030;2023-06-14T07:00:34;16.70;59.10
10911;DHT22;5508;49.150;11.030;2023-06-14T07:03:35;17.30;58.80
10911;DHT22;5508;49.150;11.030;2023-06-14T07:06:36;17.60;55.70
10911;DHT22;5508;49.150;11.030;2023-06-14T07:09:37;17.90;54.80
10911;DHT22;5508;49.150;11.030;2023-06-14T07:12:38;18.00;54.60
10911;DHT22;5508;49.150;11.030;2023-06-14T07:15:39;18.10;53.50
10911;DHT22;5508;49.150;11.030;2023-06-14T07:18:40;18.10;54.60
10911;DHT22;5508;49.150;11.030;2023-06-14T07:21:41;18.00;54.50
10911;DHT22;5508;49.150;11.030;2023-06-14T07:24:41;18.10;51.60
10911;DHT22;5508;49.150;11.030;2023-06-14T07:27:43;18.30;51.90
10911;DHT22;5508;49.150;11.030;2023-06-14T07:30:44;18.30;50.30
10911;DHT22;5508;49.150;11.030;2023-06-14T07:33:45;18.50;49.70
10911;DHT22;5508;49.150;11.030;2023-06-14T07:36:46;18.90;48.90
10911;DHT22;5508;49.150;11.030;2023-06-14T07:39:46;18.90;50.50
10911;DHT22;5508;49.150;11.030;2023-06-14T07:42:47;19.00;49.10
10911;DHT22;5508;49.150;11.030;2023-06-14T07:45:48;19.00;50.40
10911;DHT22;5508;49.150;11.030;2023-06-14T07:48:48;18.70;50.30
10911;DHT22;5508;49.150;11.030;2023-06-14T07:51:49;18.60;50.00
10911;DHT22;5508;49.150;11.030;2023-06-14T07:54:51;18.90;49.40
10911;DHT22;5508;49.150;11.030;2023-06-14T07:57:51;19.20;46.90
10911;DHT22;5508;49.150;11.030;2023-06-14T08:00:52;19.30;47.80
10911;DHT22;5508;49.150;11.030;2023-06-14T08:03:53;19.40;46.10
10911;DHT22;5508;49.150;11.030;2023-06-14T08:06:54;19.60;45.50
10911;DHT22;5508;49.150;11.030;2023-06-14T08:09:54;19.60;47.10
10911;DHT22;5508;49.150;11.030;2023-06-14T08:12:55;20.20;48.50
10911;DHT22;5508;49.150;11.030;2023-06-14T08:15:56;20.50;45.60
10911;DHT22;5508;49.150;11.030;2023-06-14T08:18:57;20.70;44.50
10911;DHT22;5508;49.150;11.030;2023-06-14T08:21:58;20.80;44.70
10911;DHT22;5508;49.150;11.030;2023-06-14T08:24:59;20.80;43.90
10911;DHT22;5508;49.150;11.030;2023-06-14T08:27:59;20.90;40.70
10911;DHT22;5508;49.150;11.030;2023-06-14T08:31:00;20.80;41.90
10911;DHT22;5508;49.150;11.030;2023-06-14T08:34:02;20.90;40.30
10911;DHT22;5508;49.150;11.030;2023-06-14T08:37:02;20.90;41.50
10911;DHT22;5508;49.150;11.030;2023-06-14T08:40:03;21.30;39.80
10911;DHT22;5508;49.150;11.030;2023-06-14T08:43:05;21.30;40.90
10911;DHT22;5508;49.150;11.030;2023-06-14T08:46:06;21.10;39.80
10911;DHT22;5508;49.150;11.030;2023-06-14T08:49:11;20.60;41.70
10911;DHT22;5508;49.150;11.030;2023-06-14T08:52:12;20.70;40.80
10911;DHT22;5508;49.150;11.030;2023-06-14T08:55:14;20.60;41.90
10911;DHT22;5508;49.150;11.030;2023-06-14T08:58:14;20.70;41.90
10911;DHT22;5508;49.150;11.030;2023-06-14T09:01:15;21.00;42.30
10911;DHT22;5508;49.150;11.030;2023-06-14T09:04:18;21.30;41.10
10911;DHT22;5508;49.150;11.030;2023-06-14T09:07:19;21.50;40.80
10911;DHT22;5508;49.150;11.030;2023-06-14T09:10:21;21.60;38.80
10911;DHT22;5508;49.150;11.030;2023-06-14T09:13:22;21.60;36.10
10911;DHT22;5508;49.150;11.030;2023-06-14T09:16:23;21.40;39.60
10911;DHT22;5508;49.150;11.030;2023-06-14T09:19:24;21.40;39.20
10911;DHT22;5508;49.150;11.030;2023-06-14T09:22:25;21.70;34.70
10911;DHT22;5508;49.150;11.030;2023-06-14T09:25:26;21.70;34.50
10911;DHT22;5508;49.150;11.030;2023-06-14T09:28:28;21.80;37.70
10911;DHT22;5508;49.150;11.030;2023-06-14T09:31:29;22.40;40.40
10911;DHT22;5508;49.150;11.030;2023-06-14T09:34:33;22.70;36.50
10911;DHT22;5508;49.150;11.030;2023-06-14T09:37:35;22.70;34.80
10911;DHT22;5508;49.150;11.030;2023-06-14T09:40:38;23.00;32.90
10911;DHT22;5508;49.150;11.030;2023-06-14T09:43:39;23.00;33.70
10911;DHT22;5508;49.150;11.030;2023-06-14T09:46:40;23.40;32.00
10911;DHT22;5508;49.150;11.030;2023-06-14T09:49:40;23.20;31.40
10911;DHT22;5508;49.150;11.030;2023-06-14T09:52:43;23.10;33.20
10911;DHT22;5508;49.150;11.030;2023-06-14T09:55:45;23.40;30.90
10911;DHT22;5508;49.150;11.030;2023-06-14T09:58:45;23.40;32.60
10911;DHT22;5508;49.150;11.030;2023-06-14T10:01:47;23.30;29.70
10911;DHT22;5508;49.150;11.030;2023-06-14T10:05:09;23.50;31.40
10911;DHT22;5508;49.150;11.030;2023-06-14T10:08:14;24.10;30.40
10911;DHT22;5508;49.150;11.030;2023-06-14T10:11:18;24.00;29.80
10911;DHT22;5508;49.150;11.030;2023-06-14T10:14:19;23.40;30.90
10911;DHT22;5508;49.150;11.030;2023-06-14T10:20:35;22.40;32.70
10911;DHT22;5508;49.150;11.030;2023-06-14T10:23:42;22.30;33.00
10911;DHT22;5508;49.150;11.030;2023-06-14T10:26:54;22.10;33.60
10911;DHT22;5508;49.150;11.030;2023-06-14T10:33:06;21.50;35.00
10911;DHT22;5508;49.150;11.030;2023-06-14T10:39:18;21.60;33.90
10911;DHT22;5508;49.150;11.030;2023-06-14T10:42:20;21.50;33.00
10911;DHT22;5508;49.150;11.030;2023-06-14T10:45:23;21.40;34.20
10911;DHT22;5508;49.150;11.030;2023-06-14T10:48:33;21.50;35.50
10911;DHT22;5508;49.150;11.030;2023-06-14T10:51:42;21.50;36.20
10911;DHT22;5508;49.150;11.030;2023-06-14T10:55:02;21.50;36.90
10911;DHT22;5508;49.150;11.030;2023-06-14T10:58:04;21.50;35.10
10911;DHT22;5508;49.150;11.030;2023-06-14T11:01:05;21.40;36.00
10911;DHT22;5508;49.150;11.030;2023-06-14T11:04:09;21.40;35.40
10911;DHT22;5508;49.150;11.030;2023-06-14T11:13:43;21.80;35.30
10911;DHT22;5508;49.150;11.030;2023-06-14T11:16:48;21.80;36.10
10911;DHT22;5508;49.150;11.030;2023-06-14T11:19:49;21.80;35.00
10911;DHT22;5508;49.150;11.030;2023-06-14T11:22:50;21.60;35.90
10911;DHT22;5508;49.150;11.030;2023-06-14T11:25:52;21.20;36.40
10911;DHT22;5508;49.150;11.030;2023-06-14T11:28:56;21.20;37.40
10911;DHT22;5508;49.150;11.030;2023-06-14T11:31:57;21.10;37.10
10911;DHT22;5508;49.150;11.030;2023-06-14T11:34:58;21.00;36.30
10911;DHT22;5508;49.150;11.030;2023-06-14T11:38:01;20.90;37.80
10911;DHT22;5508;49.150;11.030;2023-06-14T11:41:03;20.70;38.00
10911;DHT22;5508;49.150;11.030;2023-06-14T11:44:05;20.70;39.10
10911;DHT22;5508;49.150;11.030;2023-06-14T11:47:06;20.80;39.60
10911;DHT22;5508;49.150;11.030;2023-06-14T11:50:08;21.20;37.90
10911;DHT22;5508;49.150;11.030;2023-06-14T11:53:10;21.40;37.70
10911;DHT22;5508;49.150;11.030;2023-06-14T11:56:10;21.40;36.70
10911;DHT22;5508;49.150;11.030;2023-06-14T11:59:13;21.50;38.40
10911;DHT22;5508;49.150;11.030;2023-06-14T12:02:17;21.70;34.80
10911;DHT22;5508;49.150;11.030;2023-06-14T12:05:21;21.80;35.10
10911;DHT22;5508;49.150;11.030;2023-06-14T12:08:32;21.70;36.70
10911;DHT22;5508;49.150;11.030;2023-06-14T12:11:39;21.60;37.90
10911;DHT22;5508;49.150;11.030;2023-06-14T12:14:41;21.80;37.70
10911;DHT22;5508;49.150;11.030;2023-06-14T12:17:43;21.90;37.80
10911;DHT22;5508;49.150;11.030;2023-06-14T12:20:49;22.00;38.30
10911;DHT22;5508;49.150;11.030;2023-06-14T12:23:50;22.10;36.60
10911;DHT22;5508;49.150;11.030;2023-06-14T12:26:51;21.80;36.60
10911;DHT22;5508;49.150;11.030;2023-06-14T12:30:03;21.70;36.50
10911;DHT22;5508;49.150;11.030;2023-06-14T12:33:05;21.50;37.70
10911;DHT22;5508;49.150;11.030;2023-06-14T12:36:10;21.50;38.40
10911;DHT22;5508;49.150;11.030;2023-06-14T12:39:11;21.50;36.40
10911;DHT22;5508;49.150;11.030;2023-06-14T12:42:11;21.40;37.30
10911;DHT22;5508;49.150;11.030;2023-06-14T12:45:14;21.40;36.90
10911;DHT22;5508;49.150;11.030;2023-06-14T12:48:15;21.50;38.00
10911;DHT22;5508;49.150;11.030;2023-06-14T12:51:16;21.40;36.10
10911;DHT22;5508;49.150;11.030;2023-06-14T12:54:17;21.80;35.20
10911;DHT22;5508;49.150;11.030;2023-06-14T12:57:18;21.90;35.00
10911;DHT22;5508;49.150;11.030;2023-06-14T13:00:19;22.00;35.90
10911;DHT22;5508;49.150;11.030;2023-06-14T13:03:20;22.20;34.10
10911;DHT22;5508;49.150;11.030;2023-06-14T13:06:22;22.20;33.60
10911;DHT22;5508;49.150;11.030;2023-06-14T13:09:25;22.10;33.80
10911;DHT22;5508;49.150;11.030;2023-06-14T13:12:27;22.20;33.60
10911;DHT22;5508;49.150;11.030;2023-06-14T13:15:27;22.30;34.90
10911;DHT22;5508;49.150;11.030;2023-06-14T13:18:28;22.20;33.10
10911;DHT22;5508;49.150;11.030;2023-06-14T13:21:29;22.20;33.20
10911;DHT22;5508;49.150;11.030;2023-06-14T13:24:29;22.00;33.10
10911;DHT22;5508;49.150;11.030;2023-06-14T13:27:30;21.80;34.80
10911;DHT22;5508;49.150;11.030;2023-06-14T13:30:32;22.10;37.90
10911;DHT22;5508;49.150;11.030;2023-06-14T13:33:33;22.30;34.70
10911;DHT22;5508;49.150;11.030;2023-06-14T13:36:33;22.70;33.00
10911;DHT22;5508;49.150;11.030;2023-06-14T13:39:34;23.00;31.10
10911;DHT22;5508;49.150;11.030;2023-06-14T13:42:37;23.00;32.10
10911;DHT22;5508;49.150;11.030;2023-06-14T13:45:38;22.70;33.50
10911;DHT22;5508;49.150;11.030;2023-06-14T13:48:38;22.40;34.40
10911;DHT22;5508;49.150;11.030;2023-06-14T13:51:39;22.30;33.90
10911;DHT22;5508;49.150;11.030;2023-06-14T13:54:40;22.30;34.70
10911;DHT22;5508;49.150;11.030;2023-06-14T13:57:41;22.20;34.00
10911;DHT22;5508;49.150;11.030;2023-06-14T14:00:41;21.90;34.20
10911;DHT22;5508;49.150;11.030;2023-06-14T14:03:42;21.70;34.50
10911;DHT22;5508;49.150;11.030;2023-06-14T14:06:42;21.70;35.90
10911;DHT22;5508;49.150;11.030;2023-06-14T14:09:43;21.70;34.90
10911;DHT22;5508;49.150;11.030;2023-06-14T14:12:44;21.70;34.70
10911;DHT22;5508;49.150;11.030;2023-06-14T14:15:45;21.80;36.50
10911;DHT22;5508;49.150;11.030;2023-06-14T14:18:46;21.60;35.50
10911;DHT22;5508;49.150;11.030;2023-06-14T14:21:47;21.90;36.10
10911;DHT22;5508;49.150;11.030;2023-06-14T14:24:48;22.00;35.00
10911;DHT22;5508;49.150;11.030;2023-06-14T14:27:48;22.00;35.90
10911;DHT22;5508;49.150;11.030;2023-06-14T14:30:49;22.10;33.10
10911;DHT22;5508;49.150;11.030;2023-06-14T14:33:50;22.10;33.00
10911;DHT22;5508;49.150;11.030;2023-06-14T14:36:51;22.00;34.40
10911;DHT22;5508;49.150;11.030;2023-06-14T14:39:51;21.90;36.70
10911;DHT22;5508;49.150;11.030;2023-06-14T14:42:52;22.00;35.50
10911;DHT22;5508;49.150;11.030;2023-06-14T14:45:52;22.40;34.00
10911;DHT22;5508;49.150;11.030;2023-06-14T14:48:53;22.30;33.30
10911;DHT22;5508;49.150;11.030;2023-06-14T14:51:55;22.10;34.10
10911;DHT22;5508;49.150;11.030;2023-06-14T14:54:56;21.90;35.20
10911;DHT22;5508;49.150;11.030;2023-06-14T14:57:57;21.90;34.30
10911;DHT22;5508;49.150;11.030;2023-06-14T15:00:58;22.00;34.30
10911;DHT22;5508;49.150;11.030;2023-06-14T15:03:58;22.10;32.80
10911;DHT22;5508;49.150;11.030;2023-06-14T15:06:59;22.20;33.20
10911;DHT22;5508;49.150;11.030;2023-06-14T15:10:02;22.10;33.00
10911;DHT22;5508;49.150;11.030;2023-06-14T15:13:04;22.10;32.90
10911;DHT22;5508;49.150;11.030;2023-06-14T15:16:05;22.20;34.50
10911;DHT22;5508;49.150;11.030;2023-06-14T15:19:06;22.20;35.70
10911;DHT22;5508;49.150;11.030;2023-06-14T15:22:06;22.30;33.50
10911;DHT22;5508;49.150;11.030;2023-06-14T15:25:07;22.10;32.30
10911;DHT22;5508;49.150;11.030;2023-06-14T15:28:08;22.10;32.80
10911;DHT22;5508;49.150;11.030;2023-06-14T15:31:10;22.00;32.60
10911;DHT22;5508;49.150;11.030;2023-06-14T15:34:10;22.00;32.70
10911;DHT22;5508;49.150;11.030;2023-06-14T15:37:11;21.90;34.50
10911;DHT22;5508;49.150;11.030;2023-06-14T15:40:12;22.00;35.00
10911;DHT22;5508;49.150;11.030;2023-06-14T15:43:12;21.90;33.60
10911;DHT22;5508;49.150;11.030;2023-06-14T15:46:13;22.00;34.70
10911;DHT22;5508;49.150;11.030;2023-06-14T15:49:14;21.90;35.00
10911;DHT22;5508;49.150;11.030;2023-06-14T15:52:15;21.70;34.80
10911;DHT22;5508;49.150;11.030;2023-06-14T15:55:15;21.60;34.80
10911;DHT22;5508;49.150;11.030;2023-06-14T15:58:16;21.50;34.90
10911;DHT22;5508;49.150;11.030;2023-06-14T16:01:16;21.40;35.00
10911;DHT22;5508;49.150;11.030;2023-06-14T16:04:17;21.40;35.30
10911;DHT22;5508;49.150;11.030;2023-06-14T16:07:18;21.30;35.30
10911;DHT22;5508;49.150;11.030;2023-06-14T16:10:19;21.20;36.40
10911;DHT22;5508;49.150;11.030;2023-06-14T16:13:19;21.20;35.80
10911;DHT22;5508;49.150;11.030;2023-06-14T16:16:20;21.20;37.00
10911;DHT22;5508;49.150;11.030;2023-06-14T16:19:21;21.10;37.10
10911;DHT22;5508;49.150;11.030;2023-06-14T16:22:22;21.10;35.70
10911;DHT22;5508;49.150;11.030;2023-06-14T16:25:22;21.00;35.80
10911;DHT22;5508;49.150;11.030;2023-06-14T16:28:23;21.00;35.10
10911;DHT22;5508;49.150;11.030;2023-06-14T16:31:24;21.00;39.00
10911;DHT22;5508;49.150;11.030;2023-06-14T16:34:25;20.90;41.50
10911;DHT22;5508;49.150;11.030;2023-06-14T16:37:25;20.80;40.00
10911;DHT22;5508;49.150;11.030;2023-06-14T16:40:26;20.70;38.80
10911;DHT22;5508;49.150;11.030;2023-06-14T16:43:27;20.90;38.50
10911;DHT22;5508;49.150;11.030;2023-06-14T16:46:32;21.00;38.00
10911;DHT22;5508;49.150;11.030;2023-06-14T16:49:33;21.20;37.90
10911;DHT22;5508;49.150;11.030;2023-06-14T16:52:33;21.20;38.40
10911;DHT22;5508;49.150;11.030;2023-06-14T16:55:34;21.60;36.00
10911;DHT22;5508;49.150;11.030;2023-06-14T16:58:36;21.80;35.20
10911;DHT22;5508;49.150;11.030;2023-06-14T17:01:37;21.70;34.10
10911;DHT22;5508;49.150;11.030;2023-06-14T17:04:38;21.50;35.00
10911;DHT22;5508;49.150;11.030;2023-06-14T17:07:38;21.30;35.10
10911;DHT22;5508;49.150;11.030;2023-06-14T17:10:39;21.20;35.80
10911;DHT22;5508;49.150;11.030;2023-06-14T17:13:40;21.00;36.20
10911;DHT22;5508;49.150;11.030;2023-06-14T17:16:40;20.90;35.90
10911;DHT22;5508;49.150;11.030;2023-06-14T17:19:41;20.90;36.80
10911;DHT22;5508;49.150;11.030;2023-06-14T17:22:42;20.80;36.80
10911;DHT22;5508;49.150;11.030;2023-06-14T17:25:42;20.80;36.80
10911;DHT22;5508;49.150;11.030;2023-06-14T17:28:43;20.80;37.00
10911;DHT22;5508;49.150;11.030;2023-06-14T17:31:43;20.70;37.70
10911;DHT22;5508;49.150;11.030;2023-06-14T17:34:44;20.70;37.40
10911;DHT22;5508;49.150;11.030;2023-06-14T17:37:45;20.70;37.80
10911;DHT22;5508;49.150;11.030;2023-06-14T17:40:45;20.60;37.50
10911;DHT22;5508;49.150;11.030;2023-06-14T17:43:46;20.60;38.40
10911;DHT22;5508;49.150;11.030;2023-06-14T17:46:46;20.50;39.20
10911;DHT22;5508;49.150;11.030;2023-06-14T17:49:47;20.50;40.30
10911;DHT22;5508;49.150;11.030;2023-06-14T17:52:52;20.40;39.90
10911;DHT22;5508;49.150;11.030;2023-06-14T17:55:53;20.40;40.10
10911;DHT22;5508;49.150;11.030;2023-06-14T17:58:54;20.30;39.60
10911;DHT22;5508;49.150;11.030;2023-06-14T18:01:55;20.20;39.60
10911;DHT22;5508;49.150;11.030;2023-06-14T18:04:56;20.10;41.30
10911;DHT22;5508;49.150;11.030;2023-06-14T18:07:57;20.10;39.70
10911;DHT22;5508;49.150;11.030;2023-06-14T18:10:57;20.00;39.90
10911;DHT22;5508;49.150;11.030;2023-06-14T18:13:58;19.90;40.50
10911;DHT22;5508;49.150;11.030;2023-06-14T18:16:59;19.90;41.00
10911;DHT22;5508;49.150;11.030;2023-06-14T18:19:59;19.80;42.00
10911;DHT22;5508;49.150;11.030;2023-06-14T18:23:01;19.70;42.60
10911;DHT22;5508;49.150;11.030;2023-06-14T18:26:01;19.70;41.10
10911;DHT22;5508;49.150;11.030;2023-06-14T18:29:02;19.70;40.90
10911;DHT22;5508;49.150;11.030;2023-06-14T18:32:03;19.60;42.00
10911;DHT22;5508;49.150;11.030;2023-06-14T18:35:04;19.60;41.20
10911;DHT22;5508;49.150;11.030;2023-06-14T18:38:05;19.50;43.00
10911;DHT22;5508;49.150;11.030;2023-06-14T18:41:06;19.30;44.30
10911;DHT22;5508;49.150;11.030;2023-06-14T18:44:07;19.20;45.50
10911;DHT22;5508;49.150;11.030;2023-06-14T18:47:07;19.00;46.60
10911;DHT22;5508;49.150;11.030;2023-06-14T18:50:08;18.90;46.80
10911;DHT22;5508;49.150;11.030;2023-06-14T18:53:09;18.70;47.90
10911;DHT22;5508;49.150;11.030;2023-06-14T18:56:10;18.60;47.60
10911;DHT22;5508;49.150;11.030;2023-06-14T18:59:10;18.50;48.50
10911;DHT22;5508;49.150;11.030;2023-06-14T19:02:11;18.40;48.00
10911;DHT22;5508;49.150;11.030;2023-06-14T19:05:12;18.30;48.90
10911;DHT22;5508;49.150;11.030;2023-06-14T19:08:12;18.20;49.60
10911;DHT22;5508;49.150;11.030;2023-06-14T19:11:13;17.90;50.60
10911;DHT22;5508;49.150;11.030;2023-06-14T19:14:14;17.90;50.90
10911;DHT22;5508;49.150;11.030;2023-06-14T19:17:14;17.70;51.90
10911;DHT22;5508;49.150;11.030;2023-06-14T19:20:15;17.60;52.30
10911;DHT22;5508;49.150;11.030;2023-06-14T19:23:15;17.50;53.60
10911;DHT22;5508;49.150;11.030;2023-06-14T19:26:16;17.40;54.50
10911;DHT22;5508;49.150;11.030;2023-06-14T19:29:16;17.20;54.90
10911;DHT22;5508;49.150;11.030;2023-06-14T19:32:17;17.20;55.00
10911;DHT22;5508;49.150;11.030;2023-06-14T19:35:18;17.10;56.30
10911;DHT22;5508;49.150;11.030;2023-06-14T19:38:21;17.10;56.10
10911;DHT22;5508;49.150;11.030;2023-06-14T19:41:22;17.00;56.90